sensor_id;sensor_type;location;lat;lon;timestamp;P1;durP1;ratioP1;P2;durP2;ratioP2
43813;SDS011;29669;55.706;37.656;2024-02-21T00:00:15;12.23;;;7.68;;
43813;SDS011;29669;55.706;37.656;2024-02-21T00:02:44;12.27;;;7.60;;
43813;SDS011;29669;55.706;37.656;2024-02-21T00:05:12;12.45;;;6.53;;
43813;SDS011;29669;55.706;37.656;2024-02-21T00:07:39;13.77;;;8.15;;
43813;SDS011;29669;55.706;37.656;2024-02-21T00:10:07;15.82;;;8.00;;
43813;SDS011;29669;55.706;37.656;2024-02-21T00:12:36;17.42;;;8.80;;
43813;SDS011;29669;55.706;37.656;2024-02-21T00:15:04;17.85;;;8.65;;
43813;SDS011;29669;55.706;37.656;2024-02-21T00:17:32;15.52;;;8.82;;
43813;SDS011;29669;55.706;37.656;2024-02-21T00:19:59;26.08;;;9.10;;
43813;SDS011;29669;55.706;37.656;2024-02-21T00:22:27;17.83;;;8.82;;
43813;SDS011;29669;55.706;37.656;2024-02-21T00:24:58;17.25;;;9.13;;
43813;SDS011;29669;55.706;37.656;2024-02-21T00:27:26;13.18;;;7.85;;
43813;SDS011;29669;55.706;37.656;2024-02-21T00:29:54;20.38;;;9.73;;
43813;SDS011;29669;55.706;37.656;2024-02-21T00:32:21;18.08;;;8.57;;
43813;SDS011;29669;55.706;37.656;2024-02-21T00:34:49;17.80;;;8.93;;
43813;SDS011;29669;55.706;37.656;2024-02-21T00:37:17;17.40;;;8.13;;
43813;SDS011;29669;55.706;37.656;2024-02-21T00:39:44;21.17;;;10.57;;
43813;SDS011;29669;55.706;37.656;2024-02-21T00:42:12;18.65;;;8.45;;
43813;SDS011;29669;55.706;37.656;2024-02-21T00:44:40;16.38;;;8.05;;
43813;SDS011;29669;55.706;37.656;2024-02-21T00:47:07;20.23;;;10.05;;
43813;SDS011;29669;55.706;37.656;2024-02-21T00:49:35;18.50;;;9.25;;
43813;SDS011;29669;55.706;37.656;2024-02-21T00:52:03;14.45;;;8.32;;
43813;SDS011;29669;55.706;37.656;2024-02-21T00:54:30;26.65;;;9.35;;
43813;SDS011;29669;55.706;37.656;2024-02-21T00:59:33;15.90;;;8.32;;
43813;SDS011;29669;55.706;37.656;2024-02-21T01:02:01;15.98;;;8.43;;
43813;SDS011;29669;55.706;37.656;2024-02-21T01:04:29;16.05;;;8.98;;
43813;SDS011;29669;55.706;37.656;2024-02-21T01:06:56;17.67;;;9.45;;
43813;SDS011;29669;55.706;37.656;2024-02-21T01:09:24;19.15;;;9.25;;
43813;SDS011;29669;55.706;37.656;2024-02-21T01:11:52;17.10;;;9.85;;
43813;SDS011;29669;55.706;37.656;2024-02-21T01:14:20;25.27;;;9.80;;
43813;SDS011;29669;55.706;37.656;2024-02-21T01:16:47;15.48;;;8.50;;
43813;SDS011;29669;55.706;37.656;2024-02-21T01:19:15;14.98;;;8.57;;
43813;SDS011;29669;55.706;37.656;2024-02-21T01:21:43;17.75;;;8.25;;
43813;SDS011;29669;55.706;37.656;2024-02-21T01:24:11;17.10;;;9.38;;
43813;SDS011;29669;55.706;37.656;2024-02-21T01:26:38;16.00;;;8.95;;
43813;SDS011;29669;55.706;37.656;2024-02-21T01:29:06;18.42;;;8.93;;
43813;SDS011;29669;55.706;37.656;2024-02-21T01:31:34;21.85;;;8.95;;
43813;SDS011;29669;55.706;37.656;2024-02-21T01:34:02;20.70;;;9.38;;
43813;SDS011;29669;55.706;37.656;2024-02-21T01:36:29;19.35;;;9.77;;
43813;SDS011;29669;55.706;37.656;2024-02-21T01:38:57;16.63;;;8.43;;
43813;SDS011;29669;55.706;37.656;2024-02-21T01:41:24;21.60;;;9.35;;
43813;SDS011;29669;55.706;37.656;2024-02-21T01:43:52;18.77;;;9.30;;
43813;SDS011;29669;55.706;37.656;2024-02-21T01:46:20;17.70;;;8.00;;
43813;SDS011;29669;55.706;37.656;2024-02-21T01:48:47;17.52;;;9.00;;
43813;SDS011;29669;55.706;37.656;2024-02-21T01:51:15;16.55;;;8.02;;
43813;SDS011;29669;55.706;37.656;2024-02-21T01:53:43;20.15;;;9.27;;
43813;SDS011;29669;55.706;37.656;2024-02-21T01:56:12;15.80;;;8.75;;
43813;SDS011;29669;55.706;37.656;2024-02-21T01:58:40;17.38;;;8.18;;
43813;SDS011;29669;55.706;37.656;2024-02-21T02:01:10;14.90;;;7.65;;
43813;SDS011;29669;55.706;37.656;2024-02-21T02:03:38;12.52;;;7.15;;
43813;SDS011;29669;55.706;37.656;2024-02-21T02:06:06;16.27;;;8.07;;
43813;SDS011;29669;55.706;37.656;2024-02-21T02:08:34;18.50;;;8.95;;
43813;SDS011;29669;55.706;37.656;2024-02-21T02:11:01;17.75;;;7.53;;
43813;SDS011;29669;55.706;37.656;2024-02-21T02:13:30;12.05;;;6.55;;
43813;SDS011;29669;55.706;37.656;2024-02-21T02:15:58;14.00;;;7.35;;
43813;SDS011;29669;55.706;37.656;2024-02-21T02:18:25;11.48;;;6.80;;
43813;SDS011;29669;55.706;37.656;2024-02-21T02:20:54;14.15;;;7.85;;
43813;SDS011;29669;55.706;37.656;2024-02-21T02:25:55;14.73;;;7.25;;
43813;SDS011;29669;55.706;37.656;2024-02-21T02:28:23;14.30;;;8.00;;
43813;SDS011;29669;55.706;37.656;2024-02-21T02:30:51;15.82;;;8.52;;
43813;SDS011;29669;55.706;37.656;2024-02-21T02:33:19;15.30;;;8.90;;
43813;SDS011;29669;55.706;37.656;2024-02-21T02:35:47;13.95;;;7.65;;
43813;SDS011;29669;55.706;37.656;2024-02-21T02:38:14;19.25;;;8.18;;
43813;SDS011;29669;55.706;37.656;2024-02-21T02:40:42;17.00;;;8.13;;
43813;SDS011;29669;55.706;37.656;2024-02-21T02:43:10;14.43;;;7.70;;
43813;SDS011;29669;55.706;37.656;2024-02-21T02:45:38;14.50;;;8.02;;
43813;SDS011;29669;55.706;37.656;2024-02-21T02:48:06;12.48;;;8.13;;
43813;SDS011;29669;55.706;37.656;2024-02-21T02:50:34;20.05;;;8.60;;
43813;SDS011;29669;55.706;37.656;2024-02-21T02:53:02;15.68;;;9.13;;
43813;SDS011;29669;55.706;37.656;2024-02-21T02:55:30;14.88;;;8.38;;
43813;SDS011;29669;55.706;37.656;2024-02-21T02:57:58;14.52;;;8.50;;
43813;SDS011;29669;55.706;37.656;2024-02-21T03:00:25;20.58;;;8.82;;
43813;SDS011;29669;55.706;37.656;2024-02-21T03:02:53;18.20;;;8.27;;
43813;SDS011;29669;55.706;37.656;2024-02-21T03:05:21;16.13;;;8.13;;
43813;SDS011;29669;55.706;37.656;2024-02-21T03:07:49;20.33;;;9.38;;
43813;SDS011;29669;55.706;37.656;2024-02-21T03:10:17;16.40;;;7.78;;
43813;SDS011;29669;55.706;37.656;2024-02-21T03:12:45;18.67;;;8.48;;
43813;SDS011;29669;55.706;37.656;2024-02-21T03:15:14;15.07;;;8.57;;
43813;SDS011;29669;55.706;37.656;2024-02-21T03:17:42;17.30;;;8.20;;
43813;SDS011;29669;55.706;37.656;2024-02-21T03:20:09;16.73;;;9.30;;
43813;SDS011;29669;55.706;37.656;2024-02-21T03:22:40;15.52;;;7.88;;
43813;SDS011;29669;55.706;37.656;2024-02-21T03:25:09;14.80;;;7.53;;
43813;SDS011;29669;55.706;37.656;2024-02-21T03:27:41;15.65;;;8.93;;
43813;SDS011;29669;55.706;37.656;2024-02-21T03:30:09;17.15;;;7.25;;
43813;SDS011;29669;55.706;37.656;2024-02-21T03:32:37;13.73;;;7.78;;
43813;SDS011;29669;55.706;37.656;2024-02-21T03:35:06;20.08;;;8.57;;
43813;SDS011;29669;55.706;37.656;2024-02-21T03:37:34;18.38;;;8.52;;
43813;SDS011;29669;55.706;37.656;2024-02-21T03:40:02;18.35;;;8.48;;
43813;SDS011;29669;55.706;37.656;2024-02-21T03:42:30;15.43;;;8.05;;
43813;SDS011;29669;55.706;37.656;2024-02-21T03:44:59;15.63;;;7.53;;
43813;SDS011;29669;55.706;37.656;2024-02-21T03:47:26;12.00;;;6.93;;
43813;SDS011;29669;55.706;37.656;2024-02-21T03:49:54;19.00;;;8.27;;
43813;SDS011;29669;55.706;37.656;2024-02-21T03:52:22;15.25;;;8.02;;
43813;SDS011;29669;55.706;37.656;2024-02-21T03:54:49;19.40;;;8.70;;
43813;SDS011;29669;55.706;37.656;2024-02-21T03:57:17;18.48;;;7.95;;
43813;SDS011;29669;55.706;37.656;2024-02-21T03:59:44;20.52;;;8.23;;
43813;SDS011;29669;55.706;37.656;2024-02-21T04:02:12;18.73;;;8.30;;
43813;SDS011;29669;55.706;37.656;2024-02-21T04:04:42;20.00;;;8.43;;
43813;SDS011;29669;55.706;37.656;2024-02-21T04:07:14;14.80;;;7.55;;
43813;SDS011;29669;55.706;37.656;2024-02-21T04:09:41;15.43;;;8.02;;
43813;SDS011;29669;55.706;37.656;2024-02-21T04:12:09;18.15;;;8.30;;
43813;SDS011;29669;55.706;37.656;2024-02-21T04:14:37;11.82;;;7.65;;
43813;SDS011;29669;55.706;37.656;2024-02-21T04:17:04;12.00;;;7.40;;
43813;SDS011;29669;55.706;37.656;2024-02-21T04:19:33;18.35;;;8.18;;
43813;SDS011;29669;55.706;37.656;2024-02-21T04:22:01;23.40;;;9.50;;
43813;SDS011;29669;55.706;37.656;2024-02-21T04:24:28;17.73;;;8.48;;
43813;SDS011;29669;55.706;37.656;2024-02-21T04:26:56;15.05;;;8.43;;
43813;SDS011;29669;55.706;37.656;2024-02-21T04:29:24;17.10;;;8.35;;
43813;SDS011;29669;55.706;37.656;2024-02-21T04:31:51;16.77;;;8.65;;
43813;SDS011;29669;55.706;37.656;2024-02-21T04:34:19;19.20;;;8.15;;
43813;SDS011;29669;55.706;37.656;2024-02-21T04:36:47;19.65;;;9.15;;
43813;SDS011;29669;55.706;37.656;2024-02-21T04:39:15;17.35;;;9.63;;
43813;SDS011;29669;55.706;37.656;2024-02-21T04:41:42;17.90;;;8.98;;
43813;SDS011;29669;55.706;37.656;2024-02-21T04:44:11;17.27;;;8.48;;
43813;SDS011;29669;55.706;37.656;2024-02-21T04:46:41;13.35;;;7.05;;
43813;SDS011;29669;55.706;37.656;2024-02-21T04:49:09;16.02;;;8.70;;
43813;SDS011;29669;55.706;37.656;2024-02-21T04:51:37;13.80;;;8.02;;
43813;SDS011;29669;55.706;37.656;2024-02-21T04:54:04;17.17;;;7.82;;
43813;SDS011;29669;55.706;37.656;2024-02-21T04:56:32;21.27;;;8.15;;
43813;SDS011;29669;55.706;37.656;2024-02-21T04:59:00;17.77;;;8.50;;
43813;SDS011;29669;55.706;37.656;2024-02-21T05:01:28;15.27;;;7.88;;
43813;SDS011;29669;55.706;37.656;2024-02-21T05:03:56;17.38;;;8.73;;
43813;SDS011;29669;55.706;37.656;2024-02-21T05:06:23;19.38;;;8.18;;
43813;SDS011;29669;55.706;37.656;2024-02-21T05:08:51;13.48;;;8.00;;
43813;SDS011;29669;55.706;37.656;2024-02-21T05:11:19;17.02;;;8.23;;
43813;SDS011;29669;55.706;37.656;2024-02-21T05:13:46;11.85;;;7.80;;
43813;SDS011;29669;55.706;37.656;2024-02-21T05:16:14;11.98;;;7.03;;
43813;SDS011;29669;55.706;37.656;2024-02-21T05:18:42;17.13;;;7.80;;
43813;SDS011;29669;55.706;37.656;2024-02-21T05:21:10;19.40;;;7.50;;
43813;SDS011;29669;55.706;37.656;2024-02-21T05:23:38;16.65;;;8.68;;
43813;SDS011;29669;55.706;37.656;2024-02-21T05:26:09;12.18;;;7.65;;
43813;SDS011;29669;55.706;37.656;2024-02-21T05:28:36;17.70;;;8.82;;
43813;SDS011;29669;55.706;37.656;2024-02-21T05:31:04;16.70;;;8.40;;
43813;SDS011;29669;55.706;37.656;2024-02-21T05:33:32;20.27;;;9.93;;
43813;SDS011;29669;55.706;37.656;2024-02-21T05:35:59;18.40;;;7.65;;
43813;SDS011;29669;55.706;37.656;2024-02-21T05:38:27;18.73;;;8.52;;
43813;SDS011;29669;55.706;37.656;2024-02-21T05:40:55;19.60;;;8.50;;
43813;SDS011;29669;55.706;37.656;2024-02-21T05:43:24;23.52;;;9.40;;
43813;SDS011;29669;55.706;37.656;2024-02-21T05:45:51;20.52;;;8.98;;
43813;SDS011;29669;55.706;37.656;2024-02-21T05:48:19;19.05;;;9.05;;
43813;SDS011;29669;55.706;37.656;2024-02-21T05:50:47;17.77;;;9.25;;
43813;SDS011;29669;55.706;37.656;2024-02-21T05:53:15;20.48;;;9.57;;
43813;SDS011;29669;55.706;37.656;2024-02-21T05:55:43;15.10;;;8.70;;
43813;SDS011;29669;55.706;37.656;2024-02-21T05:58:11;15.90;;;8.40;;
43813;SDS011;29669;55.706;37.656;2024-02-21T06:00:41;14.80;;;8.23;;
43813;SDS011;29669;55.706;37.656;2024-02-21T06:03:08;15.30;;;8.95;;
43813;SDS011;29669;55.706;37.656;2024-02-21T06:05:37;13.85;;;8.55;;
43813;SDS011;29669;55.706;37.656;2024-02-21T06:08:07;16.67;;;8.43;;
43813;SDS011;29669;55.706;37.656;2024-02-21T06:10:36;22.38;;;9.23;;
43813;SDS011;29669;55.706;37.656;2024-02-21T06:13:03;17.90;;;9.10;;
43813;SDS011;29669;55.706;37.656;2024-02-21T06:15:31;15.98;;;8.52;;
43813;SDS011;29669;55.706;37.656;2024-02-21T06:17:58;16.98;;;7.90;;
43813;SDS011;29669;55.706;37.656;2024-02-21T06:20:26;19.42;;;8.38;;
43813;SDS011;29669;55.706;37.656;2024-02-21T06:22:54;16.90;;;7.97;;
43813;SDS011;29669;55.706;37.656;2024-02-21T06:25:22;16.08;;;8.20;;
43813;SDS011;29669;55.706;37.656;2024-02-21T06:27:49;18.55;;;8.10;;
43813;SDS011;29669;55.706;37.656;2024-02-21T06:30:17;21.23;;;8.95;;
43813;SDS011;29669;55.706;37.656;2024-02-21T06:32:45;16.35;;;9.43;;
43813;SDS011;29669;55.706;37.656;2024-02-21T06:35:12;17.85;;;8.13;;
43813;SDS011;29669;55.706;37.656;2024-02-21T06:37:40;14.73;;;8.40;;
43813;SDS011;29669;55.706;37.656;2024-02-21T06:40:08;18.00;;;8.68;;
43813;SDS011;29669;55.706;37.656;2024-02-21T06:42:36;14.70;;;8.38;;
43813;SDS011;29669;55.706;37.656;2024-02-21T06:45:03;15.65;;;10.18;;
43813;SDS011;29669;55.706;37.656;2024-02-21T06:47:31;18.88;;;9.27;;
43813;SDS011;29669;55.706;37.656;2024-02-21T06:49:59;16.75;;;8.50;;
43813;SDS011;29669;55.706;37.656;2024-02-21T06:52:27;23.02;;;10.23;;
43813;SDS011;29669;55.706;37.656;2024-02-21T06:54:55;16.48;;;8.57;;
43813;SDS011;29669;55.706;37.656;2024-02-21T06:57:23;14.90;;;8.00;;
43813;SDS011;29669;55.706;37.656;2024-02-21T06:59:50;15.63;;;8.73;;
43813;SDS011;29669;55.706;37.656;2024-02-21T07:02:18;16.70;;;8.38;;
43813;SDS011;29669;55.706;37.656;2024-02-21T07:04:46;17.25;;;8.85;;
43813;SDS011;29669;55.706;37.656;2024-02-21T07:07:14;15.95;;;8.73;;
43813;SDS011;29669;55.706;37.656;2024-02-21T07:09:41;15.75;;;9.38;;
43813;SDS011;29669;55.706;37.656;2024-02-21T07:12:09;15.15;;;8.25;;
43813;SDS011;29669;55.706;37.656;2024-02-21T07:14:37;14.93;;;8.30;;
43813;SDS011;29669;55.706;37.656;2024-02-21T07:17:04;15.98;;;8.88;;
43813;SDS011;29669;55.706;37.656;2024-02-21T07:19:32;19.00;;;9.70;;
43813;SDS011;29669;55.706;37.656;2024-02-21T07:22:02;18.15;;;8.77;;
43813;SDS011;29669;55.706;37.656;2024-02-21T07:24:30;13.43;;;7.63;;
43813;SDS011;29669;55.706;37.656;2024-02-21T07:26:59;16.92;;;9.18;;
43813;SDS011;29669;55.706;37.656;2024-02-21T07:29:31;17.40;;;8.40;;
43813;SDS011;29669;55.706;37.656;2024-02-21T07:31:59;15.93;;;8.40;;
43813;SDS011;29669;55.706;37.656;2024-02-21T07:34:28;17.92;;;8.20;;
43813;SDS011;29669;55.706;37.656;2024-02-21T07:36:57;14.55;;;9.05;;
43813;SDS011;29669;55.706;37.656;2024-02-21T07:39:24;18.02;;;8.48;;
43813;SDS011;29669;55.706;37.656;2024-02-21T07:41:52;18.48;;;8.90;;
43813;SDS011;29669;55.706;37.656;2024-02-21T07:44:20;16.08;;;9.18;;
43813;SDS011;29669;55.706;37.656;2024-02-21T07:46:48;17.15;;;9.82;;
43813;SDS011;29669;55.706;37.656;2024-02-21T07:49:15;15.93;;;8.98;;
43813;SDS011;29669;55.706;37.656;2024-02-21T07:51:43;15.15;;;9.43;;
43813;SDS011;29669;55.706;37.656;2024-02-21T07:54:11;19.63;;;9.52;;
43813;SDS011;29669;55.706;37.656;2024-02-21T07:56:41;17.08;;;9.52;;
43813;SDS011;29669;55.706;37.656;2024-02-21T07:59:09;15.45;;;7.70;;
43813;SDS011;29669;55.706;37.656;2024-02-21T08:01:37;16.77;;;8.93;;
43813;SDS011;29669;55.706;37.656;2024-02-21T08:04:05;18.55;;;9.90;;
43813;SDS011;29669;55.706;37.656;2024-02-21T08:06:33;17.05;;;9.15;;
43813;SDS011;29669;55.706;37.656;2024-02-21T08:09:01;15.55;;;8.65;;
43813;SDS011;29669;55.706;37.656;2024-02-21T08:11:29;19.52;;;9.45;;
43813;SDS011;29669;55.706;37.656;2024-02-21T08:13:57;23.80;;;10.50;;
43813;SDS011;29669;55.706;37.656;2024-02-21T08:16:26;20.08;;;9.18;;
43813;SDS011;29669;55.706;37.656;2024-02-21T08:18:54;16.90;;;9.10;;
43813;SDS011;29669;55.706;37.656;2024-02-21T08:21:22;16.13;;;8.80;;
43813;SDS011;29669;55.706;37.656;2024-02-21T08:23:49;20.13;;;8.98;;
43813;SDS011;29669;55.706;37.656;2024-02-21T08:26:19;24.00;;;8.93;;
43813;SDS011;29669;55.706;37.656;2024-02-21T08:28:46;16.58;;;9.70;;
43813;SDS011;29669;55.706;37.656;2024-02-21T08:31:20;20.77;;;10.25;;
43813;SDS011;29669;55.706;37.656;2024-02-21T08:33:48;18.45;;;9.23;;
43813;SDS011;29669;55.706;37.656;2024-02-21T08:36:19;17.75;;;8.52;;
43813;SDS011;29669;55.706;37.656;2024-02-21T08:38:47;19.73;;;9.82;;
43813;SDS011;29669;55.706;37.656;2024-02-21T08:41:15;16.77;;;9.20;;
43813;SDS011;29669;55.706;37.656;2024-02-21T08:43:43;17.85;;;8.55;;
43813;SDS011;29669;55.706;37.656;2024-02-21T08:46:11;18.13;;;10.05;;
43813;SDS011;29669;55.706;37.656;2024-02-21T08:48:39;18.92;;;8.27;;
43813;SDS011;29669;55.706;37.656;2024-02-21T08:51:08;17.77;;;10.32;;
43813;SDS011;29669;55.706;37.656;2024-02-21T08:53:35;21.75;;;9.77;;
43813;SDS011;29669;55.706;37.656;2024-02-21T08:56:03;17.45;;;8.80;;
43813;SDS011;29669;55.706;37.656;2024-02-21T08:58:32;18.95;;;9.40;;
43813;SDS011;29669;55.706;37.656;2024-02-21T09:00:59;19.25;;;10.07;;
43813;SDS011;29669;55.706;37.656;2024-02-21T09:03:27;22.30;;;10.38;;
43813;SDS011;29669;55.706;37.656;2024-02-21T09:05:55;24.73;;;10.52;;
43813;SDS011;29669;55.706;37.656;2024-02-21T09:08:22;22.52;;;9.85;;
43813;SDS011;29669;55.706;37.656;2024-02-21T09:10:52;18.38;;;8.95;;
43813;SDS011;29669;55.706;37.656;2024-02-21T09:13:20;15.60;;;8.70;;
43813;SDS011;29669;55.706;37.656;2024-02-21T09:15:48;16.90;;;9.40;;
43813;SDS011;29669;55.706;37.656;2024-02-21T09:18:16;15.98;;;9.60;;
43813;SDS011;29669;55.706;37.656;2024-02-21T09:20:47;17.83;;;9.63;;
43813;SDS011;29669;55.706;37.656;2024-02-21T09:23:15;16.15;;;8.95;;
43813;SDS011;29669;55.706;37.656;2024-02-21T09:25:43;16.20;;;8.55;;
43813;SDS011;29669;55.706;37.656;2024-02-21T09:28:11;15.43;;;8.55;;
43813;SDS011;29669;55.706;37.656;2024-02-21T09:30:40;19.40;;;10.40;;
43813;SDS011;29669;55.706;37.656;2024-02-21T09:33:07;13.98;;;8.45;;
43813;SDS011;29669;55.706;37.656;2024-02-21T09:35:35;17.33;;;8.00;;
43813;SDS011;29669;55.706;37.656;2024-02-21T09:38:03;17.23;;;9.15;;
43813;SDS011;29669;55.706;37.656;2024-02-21T09:40:31;18.85;;;8.98;;
43813;SDS011;29669;55.706;37.656;2024-02-21T09:43:03;15.82;;;8.80;;
43813;SDS011;29669;55.706;37.656;2024-02-21T09:45:34;12.23;;;7.30;;
43813;SDS011;29669;55.706;37.656;2024-02-21T09:50:40;16.13;;;9.77;;
43813;SDS011;29669;55.706;37.656;2024-02-21T09:53:11;18.17;;;9.05;;
43813;SDS011;29669;55.706;37.656;2024-02-21T09:55:41;15.18;;;8.68;;
43813;SDS011;29669;55.706;37.656;2024-02-21T09:58:09;14.38;;;8.73;;
43813;SDS011;29669;55.706;37.656;2024-02-21T10:00:37;18.60;;;9.40;;
43813;SDS011;29669;55.706;37.656;2024-02-21T10:03:05;14.95;;;9.30;;
43813;SDS011;29669;55.706;37.656;2024-02-21T10:05:36;15.13;;;8.45;;
43813;SDS011;29669;55.706;37.656;2024-02-21T10:08:05;12.52;;;7.20;;
43813;SDS011;29669;55.706;37.656;2024-02-21T10:10:45;19.17;;;9.05;;
43813;SDS011;29669;55.706;37.656;2024-02-21T10:13:26;13.43;;;8.05;;
43813;SDS011;29669;55.706;37.656;2024-02-21T10:16:04;11.80;;;8.00;;
43813;SDS011;29669;55.706;37.656;2024-02-21T10:18:34;17.50;;;7.85;;
43813;SDS011;29669;55.706;37.656;2024-02-21T10:21:03;21.05;;;9.68;;
43813;SDS011;29669;55.706;37.656;2024-02-21T10:23:51;15.25;;;8.60;;
43813;SDS011;29669;55.706;37.656;2024-02-21T10:26:19;17.25;;;8.70;;
43813;SDS011;29669;55.706;37.656;2024-02-21T10:28:47;15.00;;;9.70;;
43813;SDS011;29669;55.706;37.656;2024-02-21T10:31:25;12.48;;;7.68;;
43813;SDS011;29669;55.706;37.656;2024-02-21T10:34:01;16.13;;;9.02;;
43813;SDS011;29669;55.706;37.656;2024-02-21T10:36:33;12.48;;;7.40;;
43813;SDS011;29669;55.706;37.656;2024-02-21T10:39:01;15.02;;;8.10;;
43813;SDS011;29669;55.706;37.656;2024-02-21T10:41:28;18.40;;;9.07;;
43813;SDS011;29669;55.706;37.656;2024-02-21T10:43:58;15.68;;;8.57;;
43813;SDS011;29669;55.706;37.656;2024-02-21T10:46:29;13.30;;;7.80;;
43813;SDS011;29669;55.706;37.656;2024-02-21T10:49:22;13.70;;;7.40;;
43813;SDS011;29669;55.706;37.656;2024-02-21T10:54:48;13.25;;;7.25;;
43813;SDS011;29669;55.706;37.656;2024-02-21T10:57:34;12.10;;;6.93;;
43813;SDS011;29669;55.706;37.656;2024-02-21T11:00:04;15.95;;;9.00;;
43813;SDS011;29669;55.706;37.656;2024-02-21T11:02:35;13.98;;;7.63;;
43813;SDS011;29669;55.706;37.656;2024-02-21T11:05:04;13.60;;;7.85;;
43813;SDS011;29669;55.706;37.656;2024-02-21T11:07:35;12.55;;;8.20;;
43813;SDS011;29669;55.706;37.656;2024-02-21T11:10:03;13.35;;;7.85;;
43813;SDS011;29669;55.706;37.656;2024-02-21T11:12:32;14.98;;;7.43;;
43813;SDS011;29669;55.706;37.656;2024-02-21T11:15:04;11.63;;;7.20;;
43813;SDS011;29669;55.706;37.656;2024-02-21T11:17:33;15.75;;;7.50;;
43813;SDS011;29669;55.706;37.656;2024-02-21T11:20:11;14.98;;;7.68;;
43813;SDS011;29669;55.706;37.656;2024-02-21T11:22:42;13.50;;;7.60;;
43813;SDS011;29669;55.706;37.656;2024-02-21T11:25:11;14.23;;;7.63;;
43813;SDS011;29669;55.706;37.656;2024-02-21T11:27:45;11.77;;;7.53;;
43813;SDS011;29669;55.706;37.656;2024-02-21T11:30:13;12.02;;;6.55;;
43813;SDS011;29669;55.706;37.656;2024-02-21T11:32:42;12.82;;;7.30;;
43813;SDS011;29669;55.706;37.656;2024-02-21T11:35:09;11.63;;;7.63;;
43813;SDS011;29669;55.706;37.656;2024-02-21T11:37:47;12.60;;;7.63;;
43813;SDS011;29669;55.706;37.656;2024-02-21T11:40:15;11.93;;;7.40;;
43813;SDS011;29669;55.706;37.656;2024-02-21T11:42:44;9.98;;;6.43;;
43813;SDS011;29669;55.706;37.656;2024-02-21T11:45:14;16.58;;;7.60;;
43813;SDS011;29669;55.706;37.656;2024-02-21T11:47:42;12.55;;;7.00;;
43813;SDS011;29669;55.706;37.656;2024-02-21T11:50:10;12.75;;;7.40;;
43813;SDS011;29669;55.706;37.656;2024-02-21T11:52:39;13.85;;;7.15;;
43813;SDS011;29669;55.706;37.656;2024-02-21T11:55:07;9.93;;;6.63;;
43813;SDS011;29669;55.706;37.656;2024-02-21T11:57:37;11.63;;;6.53;;
43813;SDS011;29669;55.706;37.656;2024-02-21T12:00:16;13.60;;;8.05;;
43813;SDS011;29669;55.706;37.656;2024-02-21T12:02:45;13.98;;;7.55;;
43813;SDS011;29669;55.706;37.656;2024-02-21T12:05:14;14.10;;;7.15;;
43813;SDS011;29669;55.706;37.656;2024-02-21T12:07:42;8.95;;;5.90;;
43813;SDS011;29669;55.706;37.656;2024-02-21T12:10:11;14.32;;;7.43;;
43813;SDS011;29669;55.706;37.656;2024-02-21T12:12:39;13.98;;;7.35;;
43813;SDS011;29669;55.706;37.656;2024-02-21T12:15:07;13.35;;;7.07;;
43813;SDS011;29669;55.706;37.656;2024-02-21T12:17:36;12.20;;;6.80;;
43813;SDS011;29669;55.706;37.656;2024-02-21T12:20:05;12.57;;;7.18;;
43813;SDS011;29669;55.706;37.656;2024-02-21T12:22:37;13.63;;;7.03;;
43813;SDS011;29669;55.706;37.656;2024-02-21T12:25:17;16.13;;;7.43;;
43813;SDS011;29669;55.706;37.656;2024-02-21T12:27:46;11.70;;;6.90;;
43813;SDS011;29669;55.706;37.656;2024-02-21T12:30:15;16.42;;;7.57;;
43813;SDS011;29669;55.706;37.656;2024-02-21T12:32:43;11.95;;;7.18;;
43813;SDS011;29669;55.706;37.656;2024-02-21T12:35:11;11.27;;;7.05;;
43813;SDS011;29669;55.706;37.656;2024-02-21T12:37:39;9.88;;;6.40;;
43813;SDS011;29669;55.706;37.656;2024-02-21T12:40:08;11.40;;;7.38;;
43813;SDS011;29669;55.706;37.656;2024-02-21T12:42:38;16.75;;;7.30;;
43813;SDS011;29669;55.706;37.656;2024-02-21T12:45:05;14.05;;;7.72;;
43813;SDS011;29669;55.706;37.656;2024-02-21T12:47:33;15.10;;;8.23;;
43813;SDS011;29669;55.706;37.656;2024-02-21T12:50:01;18.40;;;8.50;;
43813;SDS011;29669;55.706;37.656;2024-02-21T12:52:31;11.93;;;6.68;;
43813;SDS011;29669;55.706;37.656;2024-02-21T12:54:59;15.55;;;7.22;;
43813;SDS011;29669;55.706;37.656;2024-02-21T12:57:27;9.13;;;6.78;;
43813;SDS011;29669;55.706;37.656;2024-02-21T12:59:55;10.95;;;6.53;;
43813;SDS011;29669;55.706;37.656;2024-02-21T13:02:23;16.92;;;6.93;;
43813;SDS011;29669;55.706;37.656;2024-02-21T13:04:50;11.38;;;6.45;;
43813;SDS011;29669;55.706;37.656;2024-02-21T13:07:18;12.65;;;6.93;;
43813;SDS011;29669;55.706;37.656;2024-02-21T13:09:46;14.13;;;7.13;;
43813;SDS011;29669;55.706;37.656;2024-02-21T13:12:14;11.32;;;6.55;;
43813;SDS011;29669;55.706;37.656;2024-02-21T13:14:42;14.90;;;7.50;;
43813;SDS011;29669;55.706;37.656;2024-02-21T13:17:11;12.07;;;7.22;;
43813;SDS011;29669;55.706;37.656;2024-02-21T13:19:39;12.98;;;6.30;;
43813;SDS011;29669;55.706;37.656;2024-02-21T13:22:07;17.60;;;8.80;;
43813;SDS011;29669;55.706;37.656;2024-02-21T13:24:34;14.90;;;7.30;;
43813;SDS011;29669;55.706;37.656;2024-02-21T13:27:02;12.40;;;6.75;;
43813;SDS011;29669;55.706;37.656;2024-02-21T13:29:31;15.13;;;7.28;;
43813;SDS011;29669;55.706;37.656;2024-02-21T13:31:58;14.50;;;7.10;;
43813;SDS011;29669;55.706;37.656;2024-02-21T13:34:26;15.75;;;7.45;;
43813;SDS011;29669;55.706;37.656;2024-02-21T13:36:54;13.80;;;7.38;;
43813;SDS011;29669;55.706;37.656;2024-02-21T13:39:22;12.32;;;6.78;;
43813;SDS011;29669;55.706;37.656;2024-02-21T13:41:50;10.90;;;6.00;;
43813;SDS011;29669;55.706;37.656;2024-02-21T13:44:18;13.35;;;6.63;;
43813;SDS011;29669;55.706;37.656;2024-02-21T13:46:46;18.20;;;6.70;;
43813;SDS011;29669;55.706;37.656;2024-02-21T13:49:13;12.70;;;5.88;;
43813;SDS011;29669;55.706;37.656;2024-02-21T13:51:41;10.95;;;5.88;;
43813;SDS011;29669;55.706;37.656;2024-02-21T13:54:11;14.20;;;6.28;;
43813;SDS011;29669;55.706;37.656;2024-02-21T13:56:41;9.50;;;6.30;;
43813;SDS011;29669;55.706;37.656;2024-02-21T13:59:09;9.98;;;6.05;;
43813;SDS011;29669;55.706;37.656;2024-02-21T14:01:36;11.75;;;6.30;;
43813;SDS011;29669;55.706;37.656;2024-02-21T14:04:04;16.13;;;7.25;;
43813;SDS011;29669;55.706;37.656;2024-02-21T14:06:32;20.13;;;7.57;;
43813;SDS011;29669;55.706;37.656;2024-02-21T14:09:00;14.98;;;7.95;;
43813;SDS011;29669;55.706;37.656;2024-02-21T14:11:28;13.43;;;6.78;;
43813;SDS011;29669;55.706;37.656;2024-02-21T14:13:56;9.32;;;5.95;;
43813;SDS011;29669;55.706;37.656;2024-02-21T14:16:25;12.18;;;5.85;;
43813;SDS011;29669;55.706;37.656;2024-02-21T14:18:52;15.82;;;7.70;;
43813;SDS011;29669;55.706;37.656;2024-02-21T14:21:21;14.82;;;7.03;;
43813;SDS011;29669;55.706;37.656;2024-02-21T14:23:53;14.95;;;7.30;;
43813;SDS011;29669;55.706;37.656;2024-02-21T14:26:21;11.57;;;6.93;;
43813;SDS011;29669;55.706;37.656;2024-02-21T14:28:49;14.30;;;8.15;;
43813;SDS011;29669;55.706;37.656;2024-02-21T14:31:16;12.55;;;6.85;;
43813;SDS011;29669;55.706;37.656;2024-02-21T14:33:44;16.98;;;7.90;;
43813;SDS011;29669;55.706;37.656;2024-02-21T14:36:13;14.10;;;6.40;;
43813;SDS011;29669;55.706;37.656;2024-02-21T14:38:43;12.75;;;6.90;;